sensor_id;sensor_type;location;lat;lon;timestamp;P1;durP1;ratioP1;P2;durP2;ratioP2
84640;SDS011;74871;51.928;15.506;2023-12-20T00:02:19;0.70;;;0.70;;
84640;SDS011;74871;51.928;15.506;2023-12-20T00:04:46;0.88;;;0.80;;
84640;SDS011;74871;51.928;15.506;2023-12-20T00:07:13;0.70;;;0.70;;
84640;SDS011;74871;51.928;15.506;2023-12-20T00:09:40;0.75;;;0.70;;
84640;SDS011;74871;51.928;15.506;2023-12-20T00:12:07;0.70;;;0.70;;
84640;SDS011;74871;51.928;15.506;2023-12-20T00:14:35;0.68;;;0.60;;
84640;SDS011;74871;51.928;15.506;2023-12-20T00:17:02;0.68;;;0.65;;
84640;SDS011;74871;51.928;15.506;2023-12-20T00:19:29;1.02;;;0.77;;
84640;SDS011;74871;51.928;15.506;2023-12-20T00:21:56;0.90;;;0.60;;
84640;SDS011;74871;51.928;15.506;2023-12-20T00:24:23;0.70;;;0.70;;
84640;SDS011;74871;51.928;15.506;2023-12-20T00:26:50;0.70;;;0.70;;
84640;SDS011;74871;51.928;15.506;2023-12-20T00:29:17;0.75;;;0.73;;
84640;SDS011;74871;51.928;15.506;2023-12-20T00:31:44;0.60;;;0.60;;
84640;SDS011;74871;51.928;15.506;2023-12-20T00:34:11;0.60;;;0.60;;
84640;SDS011;74871;51.928;15.506;2023-12-20T00:36:38;0.60;;;0.60;;
84640;SDS011;74871;51.928;15.506;2023-12-20T00:39:05;0.57;;;0.52;;
84640;SDS011;74871;51.928;15.506;2023-12-20T00:41:33;0.63;;;0.63;;
84640;SDS011;74871;51.928;15.506;2023-12-20T00:44:00;1.05;;;0.70;;
84640;SDS011;74871;51.928;15.506;2023-12-20T00:46:27;0.65;;;0.65;;
84640;SDS011;74871;51.928;15.506;2023-12-20T00:48:54;1.75;;;0.60;;
84640;SDS011;74871;51.928;15.506;2023-12-20T00:51:21;0.60;;;0.60;;
84640;SDS011;74871;51.928;15.506;2023-12-20T00:53:49;0.60;;;0.50;;
84640;SDS011;74871;51.928;15.506;2023-12-20T00:56:16;0.60;;;0.60;;
84640;SDS011;74871;51.928;15.506;2023-12-20T00:58:43;1.55;;;0.60;;
84640;SDS011;74871;51.928;15.506;2023-12-20T01:01:10;0.60;;;0.60;;
84640;SDS011;74871;51.928;15.506;2023-12-20T01:03:37;0.50;;;0.50;;
84640;SDS011;74871;51.928;15.506;2023-12-20T01:06:05;0.90;;;0.70;;
84640;SDS011;74871;51.928;15.506;2023-12-20T01:08:32;0.50;;;0.50;;
84640;SDS011;74871;51.928;15.506;2023-12-20T01:11:03;0.50;;;0.50;;
84640;SDS011;74871;51.928;15.506;2023-12-20T01:13:31;0.70;;;0.70;;
84640;SDS011;74871;51.928;15.506;2023-12-20T01:15:58;0.60;;;0.60;;
84640;SDS011;74871;51.928;15.506;2023-12-20T01:18:25;0.50;;;0.50;;
84640;SDS011;74871;51.928;15.506;2023-12-20T01:20:52;0.77;;;0.77;;
84640;SDS011;74871;51.928;15.506;2023-12-20T01:23:19;0.85;;;0.60;;
84640;SDS011;74871;51.928;15.506;2023-12-20T01:25:46;0.47;;;0.47;;
84640;SDS011;74871;51.928;15.506;2023-12-20T01:28:14;0.47;;;0.47;;
84640;SDS011;74871;51.928;15.506;2023-12-20T01:30:41;0.60;;;0.60;;
84640;SDS011;74871;51.928;15.506;2023-12-20T01:33:08;0.63;;;0.60;;
84640;SDS011;74871;51.928;15.506;2023-12-20T01:35:35;1.17;;;0.47;;
84640;SDS011;74871;51.928;15.506;2023-12-20T01:38:03;0.60;;;0.60;;
84640;SDS011;74871;51.928;15.506;2023-12-20T01:40:30;0.60;;;0.60;;
84640;SDS011;74871;51.928;15.506;2023-12-20T01:43:01;0.47;;;0.47;;
84640;SDS011;74871;51.928;15.506;2023-12-20T01:45:31;0.60;;;0.60;;
84640;SDS011;74871;51.928;15.506;2023-12-20T01:47:58;1.38;;;0.50;;
84640;SDS011;74871;51.928;15.506;2023-12-20T01:50:25;0.47;;;0.47;;
84640;SDS011;74871;51.928;15.506;2023-12-20T01:52:53;0.40;;;0.40;;
84640;SDS011;74871;51.928;15.506;2023-12-20T01:55:24;0.50;;;0.50;;
84640;SDS011;74871;51.928;15.506;2023-12-20T01:57:52;0.40;;;0.40;;
84640;SDS011;74871;51.928;15.506;2023-12-20T02:00:19;0.47;;;0.47;;
84640;SDS011;74871;51.928;15.506;2023-12-20T02:02:50;0.63;;;0.63;;
84640;SDS011;74871;51.928;15.506;2023-12-20T02:05:17;0.50;;;0.50;;
84640;SDS011;74871;51.928;15.506;2023-12-20T02:07:44;0.50;;;0.50;;
84640;SDS011;74871;51.928;15.506;2023-12-20T02:10:12;0.50;;;0.47;;
84640;SDS011;74871;51.928;15.506;2023-12-20T02:12:40;0.57;;;0.57;;
84640;SDS011;74871;51.928;15.506;2023-12-20T02:15:07;0.50;;;0.50;;
84640;SDS011;74871;51.928;15.506;2023-12-20T02:17:35;0.50;;;0.50;;
84640;SDS011;74871;51.928;15.506;2023-12-20T02:20:03;0.88;;;0.60;;
84640;SDS011;74871;51.928;15.506;2023-12-20T02:22:30;0.55;;;0.55;;
84640;SDS011;74871;51.928;15.506;2023-12-20T02:24:57;0.60;;;0.60;;
84640;SDS011;74871;51.928;15.506;2023-12-20T02:27:24;0.40;;;0.40;;
84640;SDS011;74871;51.928;15.506;2023-12-20T02:29:51;0.38;;;0.38;;
84640;SDS011;74871;51.928;15.506;2023-12-20T02:32:18;0.55;;;0.55;;
84640;SDS011;74871;51.928;15.506;2023-12-20T02:34:46;0.50;;;0.50;;
84640;SDS011;74871;51.928;15.506;2023-12-20T02:37:14;0.43;;;0.43;;
84640;SDS011;74871;51.928;15.506;2023-12-20T02:39:41;0.50;;;0.50;;
84640;SDS011;74871;51.928;15.506;2023-12-20T02:42:08;0.50;;;0.50;;
84640;SDS011;74871;51.928;15.506;2023-12-20T02:44:35;0.57;;;0.57;;
84640;SDS011;74871;51.928;15.506;2023-12-20T02:47:03;0.45;;;0.45;;
84640;SDS011;74871;51.928;15.506;2023-12-20T02:49:30;0.40;;;0.40;;
84640;SDS011;74871;51.928;15.506;2023-12-20T02:51:57;0.40;;;0.40;;
84640;SDS011;74871;51.928;15.506;2023-12-20T02:54:24;0.40;;;0.40;;
84640;SDS011;74871;51.928;15.506;2023-12-20T02:56:51;0.50;;;0.50;;
84640;SDS011;74871;51.928;15.506;2023-12-20T02:59:18;0.55;;;0.55;;
84640;SDS011;74871;51.928;15.506;2023-12-20T03:01:45;0.45;;;0.45;;
84640;SDS011;74871;51.928;15.506;2023-12-20T03:04:12;0.50;;;0.50;;
84640;SDS011;74871;51.928;15.506;2023-12-20T03:06:39;0.40;;;0.40;;
84640;SDS011;74871;51.928;15.506;2023-12-20T03:09:06;0.50;;;0.40;;
84640;SDS011;74871;51.928;15.506;2023-12-20T03:11:34;0.40;;;0.40;;
84640;SDS011;74871;51.928;15.506;2023-12-20T03:14:01;0.50;;;0.50;;
84640;SDS011;74871;51.928;15.506;2023-12-20T03:16:28;0.40;;;0.40;;
84640;SDS011;74871;51.928;15.506;2023-12-20T03:18:55;0.50;;;0.50;;
84640;SDS011;74871;51.928;15.506;2023-12-20T03:21:22;0.50;;;0.50;;
84640;SDS011;74871;51.928;15.506;2023-12-20T03:23:49;0.40;;;0.40;;
84640;SDS011;74871;51.928;15.506;2023-12-20T03:26:15;0.45;;;0.45;;
84640;SDS011;74871;51.928;15.506;2023-12-20T03:28:42;0.77;;;0.60;;
84640;SDS011;74871;51.928;15.506;2023-12-20T03:31:09;0.40;;;0.40;;
84640;SDS011;74871;51.928;15.506;2023-12-20T03:33:37;0.50;;;0.50;;
84640;SDS011;74871;51.928;15.506;2023-12-20T03:36:04;0.40;;;0.40;;
84640;SDS011;74871;51.928;15.506;2023-12-20T03:38:31;0.40;;;0.40;;
84640;SDS011;74871;51.928;15.506;2023-12-20T03:40:58;0.40;;;0.40;;
84640;SDS011;74871;51.928;15.506;2023-12-20T03:43:25;0.40;;;0.40;;
84640;SDS011;74871;51.928;15.506;2023-12-20T03:45:52;0.30;;;0.30;;
84640;SDS011;74871;51.928;15.506;2023-12-20T03:48:19;0.30;;;0.30;;
84640;SDS011;74871;51.928;15.506;2023-12-20T03:50:46;0.40;;;0.40;;
84640;SDS011;74871;51.928;15.506;2023-12-20T03:53:13;0.35;;;0.35;;
84640;SDS011;74871;51.928;15.506;2023-12-20T03:55:40;0.38;;;0.38;;
84640;SDS011;74871;51.928;15.506;2023-12-20T03:58:07;8.98;;;0.50;;
84640;SDS011;74871;51.928;15.506;2023-12-20T04:00:34;0.40;;;0.40;;
84640;SDS011;74871;51.928;15.506;2023-12-20T04:03:02;0.40;;;0.40;;
84640;SDS011;74871;51.928;15.506;2023-12-20T04:05:29;0.40;;;0.40;;
84640;SDS011;74871;51.928;15.506;2023-12-20T04:07:56;0.40;;;0.40;;
84640;SDS011;74871;51.928;15.506;2023-12-20T04:10:23;0.40;;;0.40;;
84640;SDS011;74871;51.928;15.506;2023-12-20T04:12:50;0.40;;;0.40;;
84640;SDS011;74871;51.928;15.506;2023-12-20T04:15:17;0.30;;;0.30;;
84640;SDS011;74871;51.928;15.506;2023-12-20T04:17:44;0.30;;;0.30;;
84640;SDS011;74871;51.928;15.506;2023-12-20T04:20:11;0.30;;;0.30;;
84640;SDS011;74871;51.928;15.506;2023-12-20T04:22:39;0.30;;;0.30;;
84640;SDS011;74871;51.928;15.506;2023-12-20T04:25:06;0.47;;;0.47;;
84640;SDS011;74871;51.928;15.506;2023-12-20T04:27:34;0.40;;;0.40;;
84640;SDS011;74871;51.928;15.506;2023-12-20T04:30:01;0.30;;;0.30;;
84640;SDS011;74871;51.928;15.506;2023-12-20T04:32:27;0.40;;;0.40;;
84640;SDS011;74871;51.928;15.506;2023-12-20T04:34:54;3.13;;;0.47;;
84640;SDS011;74871;51.928;15.506;2023-12-20T04:37:21;4.38;;;0.50;;
84640;SDS011;74871;51.928;15.506;2023-12-20T04:39:48;4.43;;;0.50;;
84640;SDS011;74871;51.928;15.506;2023-12-20T04:42:15;9.07;;;0.60;;
84640;SDS011;74871;51.928;15.506;2023-12-20T04:44:42;4.80;;;0.55;;
84640;SDS011;74871;51.928;15.506;2023-12-20T04:47:10;3.67;;;0.52;;
84640;SDS011;74871;51.928;15.506;2023-12-20T04:49:37;1.30;;;0.40;;
84640;SDS011;74871;51.928;15.506;2023-12-20T04:52:04;6.50;;;1.20;;
84640;SDS011;74871;51.928;15.506;2023-12-20T04:54:32;4.97;;;1.20;;
84640;SDS011;74871;51.928;15.506;2023-12-20T04:56:59;12.27;;;1.13;;
84640;SDS011;74871;51.928;15.506;2023-12-20T04:59:26;7.90;;;1.15;;
84640;SDS011;74871;51.928;15.506;2023-12-20T05:01:53;2.72;;;0.95;;
84640;SDS011;74871;51.928;15.506;2023-12-20T05:04:20;6.47;;;1.10;;
84640;SDS011;74871;51.928;15.506;2023-12-20T05:06:47;6.65;;;1.30;;
84640;SDS011;74871;51.928;15.506;2023-12-20T05:09:16;3.10;;;1.13;;
84640;SDS011;74871;51.928;15.506;2023-12-20T05:11:44;4.72;;;0.82;;
84640;SDS011;74871;51.928;15.506;2023-12-20T05:14:11;3.92;;;1.05;;
84640;SDS011;74871;51.928;15.506;2023-12-20T05:16:38;5.38;;;1.08;;
84640;SDS011;74871;51.928;15.506;2023-12-20T05:19:05;4.70;;;0.90;;
84640;SDS011;74871;51.928;15.506;2023-12-20T05:21:33;5.05;;;1.10;;
84640;SDS011;74871;51.928;15.506;2023-12-20T05:24:00;7.10;;;1.13;;
84640;SDS011;74871;51.928;15.506;2023-12-20T05:26:27;8.15;;;0.90;;
84640;SDS011;74871;51.928;15.506;2023-12-20T05:28:56;3.03;;;1.00;;
84640;SDS011;74871;51.928;15.506;2023-12-20T05:31:23;3.92;;;0.90;;
84640;SDS011;74871;51.928;15.506;2023-12-20T05:33:50;3.80;;;1.15;;
84640;SDS011;74871;51.928;15.506;2023-12-20T05:36:17;3.42;;;1.00;;
84640;SDS011;74871;51.928;15.506;2023-12-20T05:38:44;4.55;;;1.00;;
84640;SDS011;74871;51.928;15.506;2023-12-20T05:41:11;2.75;;;1.13;;
84640;SDS011;74871;51.928;15.506;2023-12-20T05:43:38;2.28;;;1.00;;
84640;SDS011;74871;51.928;15.506;2023-12-20T05:46:05;5.45;;;0.98;;
84640;SDS011;74871;51.928;15.506;2023-12-20T05:48:32;3.55;;;0.98;;
84640;SDS011;74871;51.928;15.506;2023-12-20T05:50:59;3.88;;;1.00;;
84640;SDS011;74871;51.928;15.506;2023-12-20T05:53:26;2.33;;;0.98;;
84640;SDS011;74871;51.928;15.506;2023-12-20T05:55:53;6.03;;;1.00;;
84640;SDS011;74871;51.928;15.506;2023-12-20T05:58:20;1.50;;;0.80;;
84640;SDS011;74871;51.928;15.506;2023-12-20T06:00:47;3.38;;;1.05;;
84640;SDS011;74871;51.928;15.506;2023-12-20T06:03:15;3.28;;;1.00;;
84640;SDS011;74871;51.928;15.506;2023-12-20T06:05:42;4.95;;;1.00;;
84640;SDS011;74871;51.928;15.506;2023-12-20T06:08:10;4.80;;;1.13;;
84640;SDS011;74871;51.928;15.506;2023-12-20T06:10:36;3.97;;;1.00;;
84640;SDS011;74871;51.928;15.506;2023-12-20T06:13:03;4.47;;;0.93;;
84640;SDS011;74871;51.928;15.506;2023-12-20T06:15:33;4.28;;;0.90;;
84640;SDS011;74871;51.928;15.506;2023-12-20T06:18:00;4.40;;;0.95;;
84640;SDS011;74871;51.928;15.506;2023-12-20T06:20:27;2.92;;;0.90;;
84640;SDS011;74871;51.928;15.506;2023-12-20T06:22:54;2.17;;;1.00;;
84640;SDS011;74871;51.928;15.506;2023-12-20T06:25:21;1.35;;;0.80;;
84640;SDS011;74871;51.928;15.506;2023-12-20T06:27:48;1.90;;;0.80;;
84640;SDS011;74871;51.928;15.506;2023-12-20T06:30:15;1.75;;;0.77;;
84640;SDS011;74871;51.928;15.506;2023-12-20T06:32:43;2.13;;;0.70;;
84640;SDS011;74871;51.928;15.506;2023-12-20T06:35:10;2.67;;;0.88;;
84640;SDS011;74871;51.928;15.506;2023-12-20T06:37:37;1.67;;;0.80;;
84640;SDS011;74871;51.928;15.506;2023-12-20T06:40:04;1.42;;;0.90;;
84640;SDS011;74871;51.928;15.506;2023-12-20T06:42:31;1.48;;;0.70;;
84640;SDS011;74871;51.928;15.506;2023-12-20T06:45:05;1.25;;;0.60;;
84640;SDS011;74871;51.928;15.506;2023-12-20T06:47:32;1.38;;;0.60;;
84640;SDS011;74871;51.928;15.506;2023-12-20T06:49:59;1.90;;;0.70;;
84640;SDS011;74871;51.928;15.506;2023-12-20T06:52:27;1.55;;;0.70;;
84640;SDS011;74871;51.928;15.506;2023-12-20T06:54:54;3.22;;;0.73;;
84640;SDS011;74871;51.928;15.506;2023-12-20T06:57:21;2.95;;;0.60;;
84640;SDS011;74871;51.928;15.506;2023-12-20T06:59:48;9.10;;;0.95;;
84640;SDS011;74871;51.928;15.506;2023-12-20T07:02:15;1.75;;;0.75;;
84640;SDS011;74871;51.928;15.506;2023-12-20T07:04:42;5.30;;;0.70;;
84640;SDS011;74871;51.928;15.506;2023-12-20T07:07:09;0.70;;;0.70;;
84640;SDS011;74871;51.928;15.506;2023-12-20T07:09:36;3.28;;;0.70;;
84640;SDS011;74871;51.928;15.506;2023-12-20T07:12:03;3.85;;;0.68;;
84640;SDS011;74871;51.928;15.506;2023-12-20T07:14:30;4.55;;;0.60;;
84640;SDS011;74871;51.928;15.506;2023-12-20T07:16:57;2.38;;;0.63;;
84640;SDS011;74871;51.928;15.506;2023-12-20T07:19:24;0.73;;;0.60;;
84640;SDS011;74871;51.928;15.506;2023-12-20T07:21:51;1.88;;;0.50;;
84640;SDS011;74871;51.928;15.506;2023-12-20T07:24:19;1.45;;;0.50;;
84640;SDS011;74871;51.928;15.506;2023-12-20T07:26:46;3.75;;;0.50;;
84640;SDS011;74871;51.928;15.506;2023-12-20T07:29:13;0.93;;;0.60;;
84640;SDS011;74871;51.928;15.506;2023-12-20T07:31:40;0.60;;;0.50;;
84640;SDS011;74871;51.928;15.506;2023-12-20T07:34:07;0.95;;;0.63;;
84640;SDS011;74871;51.928;15.506;2023-12-20T07:36:34;2.00;;;0.60;;
84640;SDS011;74871;51.928;15.506;2023-12-20T07:39:01;2.90;;;0.60;;
84640;SDS011;74871;51.928;15.506;2023-12-20T07:41:29;2.13;;;0.65;;
84640;SDS011;74871;51.928;15.506;2023-12-20T07:43:56;0.82;;;0.60;;
84640;SDS011;74871;51.928;15.506;2023-12-20T07:46:23;9.60;;;0.50;;
84640;SDS011;74871;51.928;15.506;2023-12-20T07:48:50;1.10;;;0.50;;
84640;SDS011;74871;51.928;15.506;2023-12-20T07:51:17;1.08;;;0.50;;
84640;SDS011;74871;51.928;15.506;2023-12-20T07:53:44;0.40;;;0.40;;
84640;SDS011;74871;51.928;15.506;2023-12-20T07:56:18;3.67;;;0.55;;
84640;SDS011;74871;51.928;15.506;2023-12-20T07:58:45;1.77;;;0.50;;
84640;SDS011;74871;51.928;15.506;2023-12-20T08:01:19;1.10;;;0.50;;
84640;SDS011;74871;51.928;15.506;2023-12-20T08:03:48;0.55;;;0.50;;
84640;SDS011;74871;51.928;15.506;2023-12-20T08:06:16;0.93;;;0.40;;
84640;SDS011;74871;51.928;15.506;2023-12-20T08:08:44;2.30;;;0.50;;
84640;SDS011;74871;51.928;15.506;2023-12-20T08:11:20;2.72;;;0.60;;
84640;SDS011;74871;51.928;15.506;2023-12-20T08:13:47;0.95;;;0.60;;
84640;SDS011;74871;51.928;15.506;2023-12-20T08:16:14;2.15;;;0.70;;
84640;SDS011;74871;51.928;15.506;2023-12-20T08:18:42;2.72;;;0.50;;
84640;SDS011;74871;51.928;15.506;2023-12-20T08:21:09;1.30;;;0.50;;
84640;SDS011;74871;51.928;15.506;2023-12-20T08:23:38;0.45;;;0.43;;
84640;SDS011;74871;51.928;15.506;2023-12-20T08:26:05;1.52;;;0.50;;
84640;SDS011;74871;51.928;15.506;2023-12-20T08:28:36;0.73;;;0.50;;
84640;SDS011;74871;51.928;15.506;2023-12-20T08:31:03;0.90;;;0.43;;
84640;SDS011;74871;51.928;15.506;2023-12-20T08:33:31;0.43;;;0.40;;
84640;SDS011;74871;51.928;15.506;2023-12-20T08:35:58;1.00;;;0.50;;
84640;SDS011;74871;51.928;15.506;2023-12-20T08:38:25;1.15;;;0.50;;
84640;SDS011;74871;51.928;15.506;2023-12-20T08:40:52;2.15;;;0.60;;
84640;SDS011;74871;51.928;15.506;2023-12-20T08:43:19;0.60;;;0.50;;
84640;SDS011;74871;51.928;15.506;2023-12-20T08:45:46;0.50;;;0.50;;
84640;SDS011;74871;51.928;15.506;2023-12-20T08:48:13;0.47;;;0.47;;
84640;SDS011;74871;51.928;15.506;2023-12-20T08:50:40;1.38;;;0.50;;
84640;SDS011;74871;51.928;15.506;2023-12-20T08:53:08;1.10;;;0.60;;
84640;SDS011;74871;51.928;15.506;2023-12-20T08:55:34;0.50;;;0.50;;
84640;SDS011;74871;51.928;15.506;2023-12-20T08:58:01;0.80;;;0.40;;
84640;SDS011;74871;51.928;15.506;2023-12-20T09:00:28;0.68;;;0.40;;
84640;SDS011;74871;51.928;15.506;2023-12-20T09:02:56;1.05;;;0.60;;
84640;SDS011;74871;51.928;15.506;2023-12-20T09:05:23;0.75;;;0.57;;
84640;SDS011;74871;51.928;15.506;2023-12-20T09:07:50;0.40;;;0.40;;
84640;SDS011;74871;51.928;15.506;2023-12-20T09:10:18;0.68;;;0.50;;
84640;SDS011;74871;51.928;15.506;2023-12-20T09:12:52;0.40;;;0.40;;
84640;SDS011;74871;51.928;15.506;2023-12-20T09:15:24;0.65;;;0.40;;
84640;SDS011;74871;51.928;15.506;2023-12-20T09:17:52;0.52;;;0.50;;
84640;SDS011;74871;51.928;15.506;2023-12-20T09:20:19;0.50;;;0.40;;
84640;SDS011;74871;51.928;15.506;2023-12-20T09:22:47;0.77;;;0.47;;
84640;SDS011;74871;51.928;15.506;2023-12-20T09:25:14;0.40;;;0.40;;
84640;SDS011;74871;51.928;15.506;2023-12-20T09:27:42;0.50;;;0.50;;
84640;SDS011;74871;51.928;15.506;2023-12-20T09:30:10;0.47;;;0.47;;
84640;SDS011;74871;51.928;15.506;2023-12-20T09:32:37;0.50;;;0.50;;
84640;SDS011;74871;51.928;15.506;2023-12-20T09:35:04;0.88;;;0.63;;
84640;SDS011;74871;51.928;15.506;2023-12-20T09:37:33;0.52;;;0.52;;
84640;SDS011;74871;51.928;15.506;2023-12-20T09:40:00;0.93;;;0.40;;
84640;SDS011;74871;51.928;15.506;2023-12-20T09:42:43;0.47;;;0.47;;
84640;SDS011;74871;51.928;15.506;2023-12-20T09:45:19;0.70;;;0.50;;
84640;SDS011;74871;51.928;15.506;2023-12-20T09:47:49;0.55;;;0.52;;
84640;SDS011;74871;51.928;15.506;2023-12-20T09:50:21;0.45;;;0.45;;
84640;SDS011;74871;51.928;15.506;2023-12-20T09:52:49;0.57;;;0.40;;
84640;SDS011;74871;51.928;15.506;2023-12-20T09:55:18;0.50;;;0.50;;
84640;SDS011;74871;51.928;15.506;2023-12-20T09:57:47;0.73;;;0.55;;
84640;SDS011;74871;51.928;15.506;2023-12-20T10:00:15;1.85;;;0.57;;
84640;SDS011;74871;51.928;15.506;2023-12-20T10:03:01;0.45;;;0.45;;
84640;SDS011;74871;51.928;15.506;2023-12-20T10:05:29;0.40;;;0.40;;
84640;SDS011;74871;51.928;15.506;2023-12-20T10:07:59;0.47;;;0.40;;
84640;SDS011;74871;51.928;15.506;2023-12-20T10:10:28;0.40;;;0.40;;
84640;SDS011;74871;51.928;15.506;2023-12-20T10:13:11;0.80;;;0.60;;
84640;SDS011;74871;51.928;15.506;2023-12-20T10:15:39;0.77;;;0.50;;
84640;SDS011;74871;51.928;15.506;2023-12-20T10:18:08;0.70;;;0.50;;
84640;SDS011;74871;51.928;15.506;2023-12-20T10:20:35;0.43;;;0.40;;
84640;SDS011;74871;51.928;15.506;2023-12-20T10:23:03;0.40;;;0.40;;
84640;SDS011;74871;51.928;15.506;2023-12-20T10:25:30;0.75;;;0.50;;
84640;SDS011;74871;51.928;15.506;2023-12-20T10:31:01;0.47;;;0.47;;
84640;SDS011;74871;51.928;15.506;2023-12-20T10:33:29;0.40;;;0.40;;
84640;SDS011;74871;51.928;15.506;2023-12-20T10:35:59;0.40;;;0.40;;
84640;SDS011;74871;51.928;15.506;2023-12-20T10:38:26;0.38;;;0.38;;
84640;SDS011;74871;51.928;15.506;2023-12-20T10:40:57;0.40;;;0.40;;
84640;SDS011;74871;51.928;15.506;2023-12-20T10:43:28;0.80;;;0.52;;
84640;SDS011;74871;51.928;15.506;2023-12-20T10:45:55;0.68;;;0.50;;
84640;SDS011;74871;51.928;15.506;2023-12-20T10:48:23;1.65;;;0.50;;
84640;SDS011;74871;51.928;15.506;2023-12-20T10:50:56;0.68;;;0.60;;
84640;SDS011;74871;51.928;15.506;2023-12-20T10:53:24;1.58;;;0.50;;
84640;SDS011;74871;51.928;15.506;2023-12-20T10:55:52;0.50;;;0.50;;
84640;SDS011;74871;51.928;15.506;2023-12-20T10:58:23;0.55;;;0.50;;
84640;SDS011;74871;51.928;15.506;2023-12-20T11:00:50;0.55;;;0.43;;
84640;SDS011;74871;51.928;15.506;2023-12-20T11:03:32;0.68;;;0.57;;
84640;SDS011;74871;51.928;15.506;2023-12-20T11:06:03;1.35;;;0.40;;
84640;SDS011;74871;51.928;15.506;2023-12-20T11:08:36;0.57;;;0.50;;
84640;SDS011;74871;51.928;15.506;2023-12-20T11:11:31;0.60;;;0.60;;
84640;SDS011;74871;51.928;15.506;2023-12-20T11:14:03;0.47;;;0.47;;
84640;SDS011;74871;51.928;15.506;2023-12-20T11:16:33;0.50;;;0.50;;
84640;SDS011;74871;51.928;15.506;2023-12-20T11:19:17;0.60;;;0.60;;
84640;SDS011;74871;51.928;15.506;2023-12-20T11:21:44;0.65;;;0.50;;
84640;SDS011;74871;51.928;15.506;2023-12-20T11:24:13;0.52;;;0.52;;
84640;SDS011;74871;51.928;15.506;2023-12-20T11:26:39;0.43;;;0.43;;
84640;SDS011;74871;51.928;15.506;2023-12-20T11:32:27;1.02;;;0.60;;
84640;SDS011;74871;51.928;15.506;2023-12-20T11:34:48;0.90;;;0.50;;
84640;SDS011;74871;51.928;15.506;2023-12-20T11:37:17;0.47;;;0.40;;
84640;SDS011;74871;51.928;15.506;2023-12-20T11:39:53;0.77;;;0.55;;
84640;SDS011;74871;51.928;15.506;2023-12-20T11:42:22;0.57;;;0.50;;
84640;SDS011;74871;51.928;15.506;2023-12-20T11:44:48;0.80;;;0.60;;
84640;SDS011;74871;51.928;15.506;2023-12-20T11:47:17;0.80;;;0.50;;
84640;SDS011;74871;51.928;15.506;2023-12-20T11:49:48;0.57;;;0.57;;
84640;SDS011;74871;51.928;15.506;2023-12-20T11:52:16;0.60;;;0.60;;
84640;SDS011;74871;51.928;15.506;2023-12-20T11:54:43;0.50;;;0.40;;
84640;SDS011;74871;51.928;15.506;2023-12-20T11:57:10;0.50;;;0.50;;
84640;SDS011;74871;51.928;15.506;2023-12-20T11:59:36;0.70;;;0.43;;
84640;SDS011;74871;51.928;15.506;2023-12-20T12:02:03;0.60;;;0.60;;
84640;SDS011;74871;51.928;15.506;2023-12-20T12:04:31;0.50;;;0.50;;
84640;SDS011;74871;51.928;15.506;2023-12-20T12:06:58;1.35;;;0.60;;
84640;SDS011;74871;51.928;15.506;2023-12-20T12:09:25;0.50;;;0.50;;
84640;SDS011;74871;51.928;15.506;2023-12-20T12:11:52;1.35;;;0.80;;
84640;SDS011;74871;51.928;15.506;2023-12-20T12:14:19;0.70;;;0.50;;
84640;SDS011;74871;51.928;15.506;2023-12-20T12:16:47;0.65;;;0.50;;
84640;SDS011;74871;51.928;15.506;2023-12-20T12:19:22;0.60;;;0.50;;
84640;SDS011;74871;51.928;15.506;2023-12-20T12:21:50;0.70;;;0.55;;
84640;SDS011;74871;51.928;15.506;2023-12-20T12:24:21;0.65;;;0.40;;
84640;SDS011;74871;51.928;15.506;2023-12-20T12:26:51;0.57;;;0.50;;
84640;SDS011;74871;51.928;15.506;2023-12-20T12:29:18;1.17;;;0.60;;
84640;SDS011;74871;51.928;15.506;2023-12-20T12:31:45;0.52;;;0.52;;
84640;SDS011;74871;51.928;15.506;2023-12-20T12:34:12;2.25;;;0.70;;
84640;SDS011;74871;51.928;15.506;2023-12-20T12:36:39;0.77;;;0.50;;
84640;SDS011;74871;51.928;15.506;2023-12-20T12:39:06;0.55;;;0.50;;
84640;SDS011;74871;51.928;15.506;2023-12-20T12:41:34;0.50;;;0.50;;
84640;SDS011;74871;51.928;15.506;2023-12-20T12:44:01;1.60;;;0.50;;
84640;SDS011;74871;51.928;15.506;2023-12-20T12:46:40;0.50;;;0.50;;
84640;SDS011;74871;51.928;15.506;2023-12-20T12:49:07;0.50;;;0.50;;
84640;SDS011;74871;51.928;15.506;2023-12-20T12:51:34;1.27;;;0.50;;
84640;SDS011;74871;51.928;15.506;2023-12-20T12:54:01;0.60;;;0.60;;
84640;SDS011;74871;51.928;15.506;2023-12-20T12:56:28;0.52;;;0.50;;
84640;SDS011;74871;51.928;15.506;2023-12-20T12:58:55;0.55;;;0.50;;
84640;SDS011;74871;51.928;15.506;2023-12-20T13:01:22;0.52;;;0.50;;
84640;SDS011;74871;51.928;15.506;2023-12-20T13:03:50;0.70;;;0.55;;
84640;SDS011;74871;51.928;15.506;2023-12-20T13:06:17;1.58;;;0.60;;
84640;SDS011;74871;51.928;15.506;2023-12-20T13:08:44;0.90;;;0.50;;
84640;SDS011;74871;51.928;15.506;2023-12-20T13:11:11;0.60;;;0.50;;
84640;SDS011;74871;51.928;15.506;2023-12-20T13:13:38;0.93;;;0.60;;
84640;SDS011;74871;51.928;15.506;2023-12-20T13:16:05;1.23;;;0.60;;
84640;SDS011;74871;51.928;15.506;2023-12-20T13:18:32;0.50;;;0.50;;
84640;SDS011;74871;51.928;15.506;2023-12-20T13:20:59;0.52;;;0.52;;
84640;SDS011;74871;51.928;15.506;2023-12-20T13:23:26;0.57;;;0.57;;
84640;SDS011;74871;51.928;15.506;2023-12-20T13:25:53;0.93;;;0.60;;
84640;SDS011;74871;51.928;15.506;2023-12-20T13:28:20;0.50;;;0.50;;
84640;SDS011;74871;51.928;15.506;2023-12-20T13:30:47;0.68;;;0.45;;
84640;SDS011;74871;51.928;15.506;2023-12-20T13:33:14;0.55;;;0.50;;
84640;SDS011;74871;51.928;15.506;2023-12-20T13:35:42;0.80;;;0.65;;
84640;SDS011;74871;51.928;15.506;2023-12-20T13:38:09;0.40;;;0.40;;
84640;SDS011;74871;51.928;15.506;2023-12-20T13:40:36;0.52;;;0.40;;
84640;SDS011;74871;51.928;15.506;2023-12-20T13:43:03;1.02;;;0.80;;
84640;SDS011;74871;51.928;15.506;2023-12-20T13:45:30;0.55;;;0.55;;
84640;SDS011;74871;51.928;15.506;2023-12-20T13:47:58;0.55;;;0.52;;
84640;SDS011;74871;51.928;15.506;2023-12-20T13:50:25;0.60;;;0.60;;
84640;SDS011;74871;51.928;15.506;2023-12-20T13:52:52;1.08;;;0.63;;
84640;SDS011;74871;51.928;15.506;2023-12-20T13:55:19;0.98;;;0.60;;
84640;SDS011;74871;51.928;15.506;2023-12-20T13:57:52;1.17;;;0.80;;
84640;SDS011;74871;51.928;15.506;2023-12-20T14:00:22;0.60;;;0.60;;
84640;SDS011;74871;51.928;15.506;2023-12-20T14:02:49;1.08;;;0.50;;
84640;SDS011;74871;51.928;15.506;2023-12-20T14:05:16;1.02;;;0.60;;
84640;SDS011;74871;51.928;15.506;2023-12-20T14:07:45;0.50;;;0.50;;
84640;SDS011;74871;51.928;15.506;2023-12-20T14:10:13;0.82;;;0.70;;
84640;SDS011;74871;51.928;15.506;2023-12-20T14:12:40;0.82;;;0.52;;
84640;SDS011;74871;51.928;15.506;2023-12-20T14:15:08;1.27;;;0.60;;
84640;SDS011;74871;51.928;15.506;2023-12-20T14:17:38;0.60;;;0.50;;
84640;SDS011;74871;51.928;15.506;2023-12-20T14:20:06;0.85;;;0.60;;
84640;SDS011;74871;51.928;15.506;2023-12-20T14:22:34;0.82;;;0.80;;
84640;SDS011;74871;51.928;15.506;2023-12-20T14:25:01;0.60;;;0.50;;
84640;SDS011;74871;51.928;15.506;2023-12-20T14:27:29;1.00;;;0.70;;
84640;SDS011;74871;51.928;15.506;2023-12-20T14:29:56;0.65;;;0.60;;
84640;SDS011;74871;51.928;15.506;2023-12-20T14:32:24;0.85;;;0.60;;
84640;SDS011;74871;51.928;15.506;2023-12-20T14:34:53;0.93;;;0.70;;
84640;SDS011;74871;51.928;15.506;2023-12-20T14:37:22;0.77;;;0.70;;
84640;SDS011;74871;51.928;15.506;2023-12-20T14:39:49;1.17;;;0.60;;
84640;SDS011;74871;51.928;15.506;2023-12-20T14:42:16;1.13;;;0.70;;
84640;SDS011;74871;51.928;15.506;2023-12-20T14:44:43;1.17;;;0.60;;